Time;durP1;ratioP1;P1;durP2;ratioP2;P2;SDS_P1;SDS_P2;PMS_P1;PMS_P2;Temp;Humidity;BMP_temperature;BMP_pressure;BME280_temperature;BME280_humidity;BME280_pressure;Samples;Min_cycle;Max_cycle;Signal;HPM_P1;HPM_P2
2022/09/07 00:02:15;;;;;;;3.50;1.90;;;;;;;;;;6197587;23;20383;-93
2022/09/07 00:04:51;;;;;;;1.43;1.33;;;;;;;;;;6197154;23;20387;-92
2022/09/07 00:07:28;;;;;;;4.40;2.03;;;;;;;;;;6199582;23;20391;-93
2022/09/07 00:09:56;;;;;;;1.50;1.33;;;;;;;;;;6198591;23;20398;-93
2022/09/07 00:12:32;;;;;;;4.47;1.40;;;;;;;;;;6196782;23;20434;-93
2022/09/07 00:14:58;;;;;;;2.97;1.70;;;;;;;;;;6196345;23;20430;-93
2022/09/07 00:17:24;;;;;;;3.30;1.50;;;;;;;;;;6187878;23;20395;-92
2022/09/07 00:19:50;;;;;;;3.80;1.80;;;;;;;;;;6194043;23;20361;-92
2022/09/07 00:22:44;;;;;;;2.45;1.63;;;;;;;;;;6198779;23;20353;-93
2022/09/07 00:25:13;;;;;;;1.88;1.77;;;;;;;;;;6197187;23;20356;-93
2022/09/07 00:27:40;;;;;;;2.67;1.80;;;;;;;;;;6197686;23;20834;-93
2022/09/07 00:30:08;;;;;;;2.20;2.10;;;;;;;;;;6196331;23;20381;-93
2022/09/07 00:32:37;;;;;;;2.80;1.60;;;;;;;;;;6191151;23;20346;-95
2022/09/07 00:35:04;;;;;;;4.05;1.92;;;;;;;;;;6190917;23;20497;-93
2022/09/07 00:37:30;;;;;;;1.80;1.70;;;;;;;;;;6187476;23;20363;-93
2022/09/07 00:43:08;;;;;;;2.10;1.90;;;;;;;;;;6171024;23;20379;-94
2022/09/07 00:45:47;;;;;;;2.10;2.00;;;;;;;;;;6197318;23;20375;-94
2022/09/07 00:53:53;;;;;;;;;;;;;;;;;;;;;
2022/09/07 00:56:40;;;;;;;5.13;1.80;;;;;;;;;;6261440;23;20353;-94
2022/09/07 00:59:28;;;;;;;2.83;2.50;;;;;;;;;;6229940;22;20365;-94
2022/09/07 01:02:06;;;;;;;2.80;2.60;;;;;;;;;;6250750;23;20385;-94
2022/09/07 01:04:35;;;;;;;3.63;2.50;;;;;;;;;;6233310;22;20398;-93
2022/09/07 01:07:03;;;;;;;3.20;2.90;;;;;;;;;;6241202;23;20366;-93
2022/09/07 01:09:32;;;;;;;2.90;2.70;;;;;;;;;;6247699;23;20369;-94
2022/09/07 01:12:00;;;;;;;2.70;2.10;;;;;;;;;;6241036;23;20378;-94
2022/09/07 01:14:28;;;;;;;2.60;2.40;;;;;;;;;;6237879;23;20702;-93
2022/09/07 01:17:09;;;;;;;3.42;2.35;;;;;;;;;;6238923;23;20392;-92
2022/09/07 01:19:54;;;;;;;5.57;3.40;;;;;;;;;;6240048;23;20430;-93
2022/09/07 01:22:39;;;;;;;3.67;3.20;;;;;;;;;;6245638;23;20358;-93
2022/09/07 01:25:23;;;;;;;4.95;3.40;;;;;;;;;;6254056;23;20350;-94
2022/09/07 01:27:57;;;;;;;2.45;2.30;;;;;;;;;;6240907;23;20366;-92
2022/09/07 01:30:43;;;;;;;3.03;1.85;;;;;;;;;;6242946;23;20373;-93
2022/09/07 01:33:31;;;;;;;1.90;1.80;;;;;;;;;;6243770;23;20362;-93
2022/09/07 01:36:19;;;;;;;2.30;2.05;;;;;;;;;;6243503;23;20814;-94
2022/09/07 01:39:07;;;;;;;3.00;2.70;;;;;;;;;;6241795;23;20365;-94
2022/09/07 01:41:41;;;;;;;2.90;2.00;;;;;;;;;;6247542;23;20377;-94
2022/09/07 01:44:29;;;;;;;2.10;1.83;;;;;;;;;;6242119;23;20678;-95
2022/09/07 01:47:01;;;;;;;2.37;1.87;;;;;;;;;;6252890;23;20411;-94
2022/09/07 01:49:52;;;;;;;2.40;2.20;;;;;;;;;;6246762;22;20802;-93
2022/09/07 01:56:14;;;;;;;1.80;1.70;;;;;;;;;;6245611;23;20366;-95
2022/09/07 01:58:42;;;;;;;2.40;2.20;;;;;;;;;;6167012;23;20369;-93
2022/09/07 02:04:40;;;;;;;2.03;1.80;;;;;;;;;;6242706;23;20357;-93
2022/09/07 02:07:47;;;;;;;2.03;1.88;;;;;;;;;;6199669;23;20411;-94
2022/09/07 02:10:49;;;;;;;2.20;2.10;;;;;;;;;;6140654;23;20386;-93
2022/09/07 02:13:35;;;;;;;4.40;2.10;;;;;;;;;;6164898;23;20335;-94
2022/09/07 02:22:14;;;;;;;2.53;2.20;;;;;;;;;;6281374;22;20400;-94
2022/09/07 02:28:02;;;;;;;;;;;;;;;;;;;;;
2022/09/07 02:31:30;;;;;;;;;;;;;;;;;;;;;
2022/09/07 02:33:46;;;;;;;1.33;1.33;;;;;;;;;;6284114;22;20348;-95
2022/09/07 02:36:38;;;;;;;1.20;1.20;;;;;;;;;;6273382;22;20356;-95
2022/09/07 02:39:40;;;;;;;;;;;;;;;;;;;;;
2022/09/07 02:42:47;;;;;;;0.90;0.90;;;;;;;;;;6290550;22;20360;-94
2022/09/07 02:51:57;;;;;;;0.80;0.80;;;;;;;;;;6281600;22;20506;-94
2022/09/07 02:58:13;;;;;;;;;;;;;;;;;;;;;
2022/09/07 03:28:51;;;;;;;1.20;1.20;;;;;;;;;;6222130;23;20579;-91
2022/09/07 03:31:57;;;;;;;1.52;1.45;;;;;;;;;;6222041;23;20386;-94
2022/09/07 03:35:01;;;;;;;1.40;1.40;;;;;;;;;;6220213;23;20453;-93
2022/09/07 03:38:01;;;;;;;1.50;1.40;;;;;;;;;;6122753;23;20365;-93
2022/09/07 03:43:19;;;;;;;2.75;2.28;;;;;;;;;;6126729;23;20366;-95
2022/09/07 03:46:21;;;;;;;;;;;;;;;;;;;;;
2022/09/07 03:48:57;;;;;;;2.25;2.05;;;;;;;;;;6193523;22;20415;-93
2022/09/07 03:51:58;;;;;;;1.77;1.77;;;;;;;;;;6277538;22;20856;-93
2022/09/07 03:54:45;;;;;;;2.40;2.20;;;;;;;;;;6160015;23;20377;-93
2022/09/07 03:57:47;;;;;;;2.30;2.10;;;;;;;;;;6188875;22;20383;-92
2022/09/07 04:06:57;;;;;;;;;;;;;;;;;;;;;
2022/09/07 04:09:33;;;;;;;2.45;2.35;;;;;;;;;;6224636;23;20454;-94
2022/09/07 04:12:43;;;;;;;;;;;;;;;;;;;;;
2022/09/07 04:24:37;;;;;;;2.60;2.50;;;;;;;;;;6113974;23;20453;-96
2022/09/07 04:27:37;;;;;;;3.40;3.25;;;;;;;;;;6088803;23;20374;-94
2022/09/07 04:41:21;;;;;;;2.90;2.80;;;;;;;;;;6212676;22;20393;-88
2022/09/07 04:44:06;;;;;;;3.50;3.30;;;;;;;;;;6230377;23;20413;-93
2022/09/07 04:47:06;;;;;;;3.17;3.00;;;;;;;;;;6257910;23;20853;-93
2022/09/07 04:50:03;;;;;;;3.80;3.80;;;;;;;;;;6229983;22;20399;-93
2022/09/07 04:53:01;;;;;;;4.40;4.10;;;;;;;;;;6223981;23;20378;-94
2022/09/07 04:56:03;;;;;;;3.88;3.78;;;;;;;;;;6130047;23;20368;-93
2022/09/07 04:59:03;;;;;;;4.60;4.40;;;;;;;;;;6075939;23;20368;-93
2022/09/07 05:02:03;;;;;;;5.00;4.60;;;;;;;;;;6073738;23;20519;-93
2022/09/07 05:11:05;;;;;;;6.47;5.87;;;;;;;;;;6257446;23;20508;-92
2022/09/07 05:14:09;;;;;;;5.90;5.60;;;;;;;;;;6228768;23;20357;-93
2022/09/07 05:17:29;;;;;;;7.07;6.57;;;;;;;;;;6228696;23;20388;-94
2022/09/07 05:20:07;;;;;;;6.25;5.85;;;;;;;;;;6108491;23;20388;-94
2022/09/07 05:23:05;;;;;;;6.65;6.15;;;;;;;;;;6104638;23;20402;-94
2022/09/07 05:25:57;;;;;;;8.17;7.67;;;;;;;;;;6108451;23;20373;-92
2022/09/07 05:28:24;;;;;;;7.75;7.25;;;;;;;;;;6127778;23;20361;-93
2022/09/07 05:30:50;;;;;;;8.60;8.00;;;;;;;;;;6129600;23;20391;-88
2022/09/07 05:33:31;;;;;;;9.38;8.68;;;;;;;;;;6131181;23;20417;-92
2022/09/07 05:39:25;;;;;;;8.10;7.50;;;;;;;;;;6131200;23;20376;-95
2022/09/07 05:42:08;;;;;;;9.20;8.50;;;;;;;;;;6134942;23;20361;-93
2022/09/07 05:44:34;;;;;;;9.35;8.73;;;;;;;;;;6204068;23;20350;-85
2022/09/07 05:52:12;;;;;;;8.30;7.80;;;;;;;;;;6272764;22;20404;-91
2022/09/07 05:57:57;;;;;;;8.63;8.13;;;;;;;;;;6283672;22;20399;-92
2022/09/07 06:00:49;;;;;;;6.90;6.60;;;;;;;;;;6285118;22;20359;-94
2022/09/07 06:03:43;;;;;;;7.82;7.13;;;;;;;;;;6288763;22;20360;-95
2022/09/07 06:06:45;;;;;;;7.65;7.10;;;;;;;;;;6287865;22;20406;-95
2022/09/07 06:09:11;;;;;;;7.65;7.25;;;;;;;;;;6153561;23;20379;-94
2022/09/07 06:11:37;;;;;;;7.40;6.90;;;;;;;;;;6235268;22;20375;-92
2022/09/07 06:14:04;;;;;;;8.43;7.72;;;;;;;;;;6276006;22;20872;-90
2022/09/07 06:16:37;;;;;;;8.40;7.60;;;;;;;;;;6283102;22;20353;-94
2022/09/07 06:19:09;;;;;;;7.78;7.18;;;;;;;;;;6279304;22;20360;-94
2022/09/07 06:21:36;;;;;;;7.88;7.15;;;;;;;;;;6275918;22;20446;-90
2022/09/07 06:24:09;;;;;;;7.22;6.72;;;;;;;;;;6288950;22;20375;-94
2022/09/07 06:26:37;;;;;;;6.65;6.25;;;;;;;;;;6287104;22;20360;-92
2022/09/07 06:29:07;;;;;;;6.35;6.05;;;;;;;;;;6277430;22;20364;-92
2022/09/07 06:31:36;;;;;;;5.40;5.20;;;;;;;;;;6283021;22;20478;-93
2022/09/07 06:34:02;;;;;;;5.80;5.40;;;;;;;;;;6276505;22;20450;-93
2022/09/07 06:36:36;;;;;;;5.40;5.20;;;;;;;;;;6274201;22;20360;-94
2022/09/07 06:39:02;;;;;;;4.88;4.68;;;;;;;;;;6277762;22;20344;-88
2022/09/07 06:41:33;;;;;;;4.70;4.37;;;;;;;;;;6226930;22;20217;-96
2022/09/07 06:44:10;;;;;;;4.90;4.70;;;;;;;;;;6226028;23;20397;-95
2022/09/07 06:46:39;;;;;;;4.03;3.93;;;;;;;;;;6220688;23;20474;-96
2022/09/07 06:49:07;;;;;;;4.17;3.97;;;;;;;;;;6212730;23;20409;-92
2022/09/07 06:51:39;;;;;;;4.53;4.33;;;;;;;;;;6219429;22;20425;-93
2022/09/07 06:59:19;;;;;;;4.90;4.50;;;;;;;;;;6244961;22;20449;-90
2022/09/07 07:01:54;;;;;;;5.00;4.80;;;;;;;;;;6219643;23;20416;-95
2022/09/07 07:04:38;;;;;;;5.40;4.90;;;;;;;;;;6227014;23;20404;-96
2022/09/07 07:11:06;;;;;;;5.47;4.60;;;;;;;;;;6189769;23;20429;-94
2022/09/07 07:13:50;;;;;;;5.23;3.27;;;;;;;;;;6167641;23;20484;-92
2022/09/07 07:16:19;;;;;;;3.80;3.70;;;;;;;;;;6227853;23;20393;-94
2022/09/07 07:18:51;;;;;;;3.57;3.47;;;;;;;;;;6227304;23;20405;-91
2022/09/07 07:21:18;;;;;;;3.87;3.77;;;;;;;;;;6226941;23;20371;-89
2022/09/07 07:27:16;;;;;;;3.13;3.03;;;;;;;;;;6129252;23;20392;-90
2022/09/07 07:30:04;;;;;;;3.83;3.63;;;;;;;;;;6129447;23;20412;-95
2022/09/07 07:32:28;;;;;;;3.20;3.20;;;;;;;;;;6252848;22;20459;-96
2022/09/07 07:34:58;;;;;;;7.10;3.60;;;;;;;;;;6289485;22;20827;-95
2022/09/07 07:37:31;;;;;;;3.50;3.40;;;;;;;;;;6289162;22;20452;-95
2022/09/07 07:42:31;;;;;;;4.23;4.13;;;;;;;;;;6280571;22;20427;-88
2022/09/07 07:44:57;;;;;;;4.43;4.13;;;;;;;;;;6257724;22;20484;-91
2022/09/07 07:47:24;;;;;;;4.27;4.07;;;;;;;;;;6267236;22;20444;-93
2022/09/07 07:49:50;;;;;;;5.10;4.93;;;;;;;;;;6251645;22;20444;-90
2022/09/07 07:52:23;;;;;;;4.70;4.60;;;;;;;;;;6218562;23;20460;-89
2022/09/07 07:54:58;;;;;;;4.30;4.20;;;;;;;;;;6223082;23;20457;-89
2022/09/07 07:57:24;;;;;;;4.60;4.50;;;;;;;;;;6244182;23;20802;-90
2022/09/07 07:59:50;;;;;;;5.60;5.23;;;;;;;;;;6241016;23;20867;-89
2022/09/07 08:02:19;;;;;;;5.37;4.97;;;;;;;;;;6212072;23;20714;-88
2022/09/07 08:04:48;;;;;;;6.17;5.70;;;;;;;;;;6239309;23;20451;-90
2022/09/07 08:07:15;;;;;;;6.77;6.37;;;;;;;;;;6213513;23;20378;-90
2022/09/07 08:09:42;;;;;;;9.10;6.70;;;;;;;;;;6213851;23;20405;-90
2022/09/07 08:12:10;;;;;;;8.20;7.70;;;;;;;;;;6212365;23;20542;-90
2022/09/07 08:14:39;;;;;;;7.33;6.83;;;;;;;;;;6239619;23;20378;-90
2022/09/07 08:17:05;;;;;;;8.80;8.30;;;;;;;;;;6212680;23;20421;-89
2022/09/07 08:19:34;;;;;;;8.73;8.23;;;;;;;;;;6228390;22;20410;-91
2022/09/07 08:22:00;;;;;;;9.40;8.87;;;;;;;;;;6219675;23;21030;-90
2022/09/07 08:24:26;;;;;;;9.90;9.00;;;;;;;;;;6217159;23;20394;-89
2022/09/07 08:26:53;;;;;;;9.07;8.17;;;;;;;;;;6222270;23;20424;-90
2022/09/07 08:29:30;;;;;;;10.17;9.50;;;;;;;;;;6220679;23;20428;-89
2022/09/07 08:32:02;;;;;;;9.87;9.27;;;;;;;;;;6227032;23;20745;-90
2022/09/07 08:34:29;;;;;;;9.10;8.60;;;;;;;;;;6254358;23;20345;-91
2022/09/07 08:36:56;;;;;;;9.67;9.07;;;;;;;;;;6250595;23;20362;-92
2022/09/07 08:39:42;;;;;;;8.80;8.20;;;;;;;;;;6223453;23;20891;-92
2022/09/07 08:42:12;;;;;;;7.63;7.07;;;;;;;;;;6219681;23;20418;-91
2022/09/07 08:44:41;;;;;;;7.53;7.13;;;;;;;;;;6218154;23;20374;-92
2022/09/07 08:47:26;;;;;;;7.83;7.13;;;;;;;;;;6219159;23;20416;-91
2022/09/07 08:50:02;;;;;;;9.40;8.70;;;;;;;;;;6215298;23;20409;-91
2022/09/07 08:52:32;;;;;;;8.10;7.70;;;;;;;;;;6214565;23;20393;-91
2022/09/07 08:55:03;;;;;;;6.97;6.60;;;;;;;;;;6220723;23;20400;-90
2022/09/07 08:57:52;;;;;;;6.53;6.13;;;;;;;;;;6219304;23;20489;-91
2022/09/07 09:00:35;;;;;;;7.20;6.70;;;;;;;;;;6220641;23;20394;-93
2022/09/07 09:03:07;;;;;;;7.53;7.10;;;;;;;;;;6227049;23;20389;-90
2022/09/07 09:05:42;;;;;;;7.00;6.50;;;;;;;;;;6252758;23;20377;-92
2022/09/07 09:08:14;;;;;;;7.00;6.50;;;;;;;;;;6225229;23;20522;-91
2022/09/07 09:11:10;;;;;;;6.60;6.10;;;;;;;;;;6222932;23;20429;-93
2022/09/07 09:13:55;;;;;;;6.33;5.80;;;;;;;;;;6224763;23;20740;-89
2022/09/07 09:16:45;;;;;;;5.10;4.80;;;;;;;;;;6227118;23;20382;-91
2022/09/07 09:19:14;;;;;;;4.90;4.80;;;;;;;;;;6234304;23;20378;-88
2022/09/07 09:22:02;;;;;;;4.73;4.30;;;;;;;;;;6231299;23;20401;-90
2022/09/07 09:24:47;;;;;;;4.67;4.33;;;;;;;;;;6220913;23;20400;-90
2022/09/07 09:27:17;;;;;;;3.40;3.30;;;;;;;;;;6223027;23;20393;-92
2022/09/07 09:29:53;;;;;;;;;;;;;;;;;;;;;
2022/09/07 09:32:41;;;;;;;5.10;4.60;;;;;;;;;;6245708;23;20475;-90
2022/09/07 09:35:26;;;;;;;4.33;4.07;;;;;;;;;;6224094;23;20393;-91
2022/09/07 09:40:56;;;;;;;3.10;3.10;;;;;;;;;;6239168;22;20437;-88
2022/09/07 09:43:36;;;;;;;3.37;3.30;;;;;;;;;;6227616;23;20453;-89
2022/09/07 09:48:41;;;;;;;2.47;2.43;;;;;;;;;;6291307;22;20435;-88
2022/09/07 09:54:35;;;;;;;;;;;;;;;;;;;;;
2022/09/07 09:57:20;;;;;;;2.57;2.47;;;;;;;;;;6275987;22;20413;-91
2022/09/07 10:00:12;;;;;;;2.70;2.70;;;;;;;;;;6248852;22;20373;-92
2022/09/07 10:02:43;;;;;;;3.50;3.40;;;;;;;;;;6245493;22;20403;-90
2022/09/07 10:05:23;;;;;;;2.90;2.70;;;;;;;;;;6256568;22;20450;-90
2022/09/07 10:08:01;;;;;;;6.00;3.70;;;;;;;;;;6259319;22;20463;-92
2022/09/07 10:10:30;;;;;;;3.50;3.30;;;;;;;;;;6255141;22;20439;-90
2022/09/07 10:12:56;;;;;;;3.70;3.50;;;;;;;;;;6260287;22;20428;-91
2022/09/07 10:15:28;;;;;;;4.90;3.10;;;;;;;;;;6261701;22;20404;-91
2022/09/07 10:17:58;;;;;;;2.83;2.83;;;;;;;;;;6267538;22;20434;-91
2022/09/07 10:20:36;;;;;;;2.43;2.23;;;;;;;;;;6267331;22;20396;-91
2022/09/07 10:23:29;;;;;;;;;;;;;;;;;;;;;
2022/09/07 10:25:58;;;;;;;1.90;1.80;;;;;;;;;;6290517;22;20360;-92
2022/09/07 10:28:27;;;;;;;1.50;1.50;;;;;;;;;;6264709;22;20384;-91
2022/09/07 10:31:15;;;;;;;1.70;1.70;;;;;;;;;;6262515;22;20759;-91
2022/09/07 10:33:55;;;;;;;2.13;2.03;;;;;;;;;;6255613;22;20384;-92
2022/09/07 10:36:27;;;;;;;2.30;2.30;;;;;;;;;;6266360;22;20369;-91
2022/09/07 10:39:03;;;;;;;2.90;2.43;;;;;;;;;;6267906;22;20381;-91
2022/09/07 10:44:18;;;;;;;2.77;2.67;;;;;;;;;;6291562;22;20420;-92
2022/09/07 10:47:16;;;;;;;;;;;;;;;;;;;;;
2022/09/07 10:50:04;;;;;;;2.97;2.97;;;;;;;;;;6280101;22;20439;-89
2022/09/07 10:52:33;;;;;;;2.47;2.37;;;;;;;;;;6290348;22;20396;-90
2022/09/07 10:58:46;;;;;;;2.80;2.70;;;;;;;;;;6279416;22;20379;-91
2022/09/07 11:01:15;;;;;;;4.40;3.30;;;;;;;;;;6287293;22;20415;-93
2022/09/07 11:04:00;;;;;;;3.57;3.37;;;;;;;;;;6290742;22;20408;-92
2022/09/07 11:06:40;;;;;;;3.20;3.10;;;;;;;;;;6285987;22;20400;-92
2022/09/07 11:09:15;;;;;;;3.03;2.83;;;;;;;;;;6285836;22;20381;-91
2022/09/07 11:11:48;;;;;;;3.80;3.70;;;;;;;;;;6287304;22;20473;-92
2022/09/07 11:20:55;;;;;;;;;;;;;;;;;;;;;
2022/09/07 11:24:00;;;;;;;3.60;3.50;;;;;;;;;;6265775;22;20448;-91
2022/09/07 11:26:57;;;;;;;3.20;3.03;;;;;;;;;;6295145;22;20381;-93
2022/09/07 11:36:01;;;;;;;2.63;2.63;;;;;;;;;;6236109;22;20480;-90
2022/09/07 11:38:43;;;;;;;3.07;2.97;;;;;;;;;;6196974;23;20387;-92
2022/09/07 11:41:29;;;;;;;3.30;3.10;;;;;;;;;;6204375;23;20401;-91
2022/09/07 11:44:01;;;;;;;3.20;3.10;;;;;;;;;;6229919;23;20401;-89
2022/09/07 11:46:49;;;;;;;2.73;2.60;;;;;;;;;;6231322;23;20386;-91
2022/09/07 11:49:36;;;;;;;;;;;;;;;;;;;;;
2022/09/07 11:58:13;;;;;;;3.60;2.97;;;;;;;;;;6075260;23;20387;-91
2022/09/07 12:03:56;;;;;;;2.80;2.73;;;;;;;;;;6142472;23;20397;-87
2022/09/07 12:07:00;;;;;;;3.07;2.87;;;;;;;;;;6131203;23;20377;-93
2022/09/07 12:09:28;;;;;;;22.73;9.20;;;;;;;;;;6230479;23;20417;-92
2022/09/07 12:19:55;;;;;;;3.93;3.80;;;;;;;;;;6211384;22;20463;-88
2022/09/07 12:22:28;;;;;;;3.13;3.10;;;;;;;;;;6190587;23;20394;-90
2022/09/07 12:24:57;;;;;;;3.33;3.20;;;;;;;;;;6193169;23;20386;-88
2022/09/07 12:27:27;;;;;;;3.23;3.03;;;;;;;;;;6220011;23;20393;-87
2022/09/07 12:30:09;;;;;;;2.60;2.60;;;;;;;;;;6192792;23;20414;-87
2022/09/07 12:32:47;;;;;;;3.30;3.10;;;;;;;;;;6195234;23;20398;-89
2022/09/07 12:35:25;;;;;;;3.00;2.90;;;;;;;;;;6217372;23;20461;-87
2022/09/07 12:37:56;;;;;;;2.73;2.63;;;;;;;;;;6191456;23;20383;-90
2022/09/07 12:40:28;;;;;;;2.90;2.70;;;;;;;;;;6203187;23;20496;-92
2022/09/07 12:43:20;;;;;;;3.57;3.47;;;;;;;;;;6200418;23;20383;-91
2022/09/07 12:45:56;;;;;;;3.10;3.00;;;;;;;;;;6224904;23;20375;-90
2022/09/07 12:48:41;;;;;;;3.37;3.27;;;;;;;;;;6223223;23;20476;-92
2022/09/07 12:51:29;;;;;;;3.30;3.10;;;;;;;;;;6193093;23;20418;-90
2022/09/07 12:54:18;;;;;;;3.30;3.20;;;;;;;;;;6205473;23;20735;-91
2022/09/07 12:57:04;;;;;;;3.40;3.20;;;;;;;;;;6205094;23;20398;-90
2022/09/07 12:59:41;;;;;;;6.27;3.60;;;;;;;;;;6194080;23;20477;-92
2022/09/07 13:02:33;;;;;;;2.63;2.53;;;;;;;;;;6190174;23;20835;-89
2022/09/07 13:05:08;;;;;;;3.80;3.60;;;;;;;;;;6176651;23;20378;-91
2022/09/07 13:07:53;;;;;;;;;;;;;;;;;;;;;
2022/09/07 13:10:35;;;;;;;3.47;3.37;;;;;;;;;;6218211;23;20393;-91
2022/09/07 13:13:06;;;;;;;4.00;3.80;;;;;;;;;;6215091;23;20473;-90
2022/09/07 13:15:40;;;;;;;3.60;3.53;;;;;;;;;;6200227;23;20409;-91
2022/09/07 13:18:14;;;;;;;4.00;3.80;;;;;;;;;;6199778;23;20387;-90
2022/09/07 13:20:41;;;;;;;3.70;3.50;;;;;;;;;;6200933;23;20424;-88
2022/09/07 13:23:16;;;;;;;3.63;3.43;;;;;;;;;;6189358;23;20382;-89
2022/09/07 13:26:00;;;;;;;;;;;;;;;;;;;;;
2022/09/07 13:28:46;;;;;;;3.50;3.40;;;;;;;;;;6231765;23;20351;-90
2022/09/07 13:31:15;;;;;;;3.03;3.03;;;;;;;;;;6218144;23;20437;-90
2022/09/07 13:33:44;;;;;;;3.00;2.90;;;;;;;;;;6220102;23;20462;-90
2022/09/07 13:36:40;;;;;;;3.00;2.90;;;;;;;;;;6198218;23;20390;-91
2022/09/07 13:39:33;;;;;;;2.20;2.10;;;;;;;;;;6199724;23;20485;-90
2022/09/07 13:44:34;;;;;;;3.20;1.97;;;;;;;;;;6215402;22;20457;-88
2022/09/07 13:47:18;;;;;;;1.77;1.77;;;;;;;;;;6224982;23;20398;-90
2022/09/07 13:52:50;;;;;;;;;;;;;;;;;;;;;
2022/09/07 13:55:47;;;;;;;2.10;2.00;;;;;;;;;;6214340;23;20461;-90
2022/09/07 13:58:43;;;;;;;2.13;1.90;;;;;;;;;;6219496;23;20378;-90
2022/09/07 14:01:12;;;;;;;2.80;2.70;;;;;;;;;;6186332;23;20906;-88
2022/09/07 14:03:50;;;;;;;2.50;2.40;;;;;;;;;;6195276;23;20396;-90
2022/09/07 14:06:26;;;;;;;2.40;1.80;;;;;;;;;;6184603;23;20442;-89
2022/09/07 14:08:52;;;;;;;1.87;1.87;;;;;;;;;;6199056;23;20406;-89
2022/09/07 14:11:26;;;;;;;2.40;2.40;;;;;;;;;;6216296;23;20422;-90
2022/09/07 14:14:15;;;;;;;2.77;2.43;;;;;;;;;;6188741;23;20407;-90
2022/09/07 14:17:26;;;;;;;;;;;;;;;;;;;;;
2022/09/07 14:20:01;;;;;;;2.73;2.63;;;;;;;;;;6095104;23;20390;-90
2022/09/07 14:25:22;;;;;;;5.10;3.60;;;;;;;;;;6256285;22;20444;-90
2022/09/07 14:27:52;;;;;;;2.50;2.50;;;;;;;;;;6207491;23;20421;-88
2022/09/07 14:33:19;;;;;;;3.00;2.80;;;;;;;;;;6215965;23;20433;-89
2022/09/07 14:35:45;;;;;;;2.73;2.27;;;;;;;;;;6213799;23;20390;-87
2022/09/07 14:38:21;;;;;;;2.20;2.10;;;;;;;;;;6212750;23;20405;-88
2022/09/07 14:40:47;;;;;;;1.83;1.77;;;;;;;;;;6215183;23;20839;-88
2022/09/07 14:43:54;;;;;;;1.70;1.70;;;;;;;;;;6215009;23;20387;-89
2022/09/07 14:46:25;;;;;;;1.83;1.83;;;;;;;;;;6090018;23;20373;-88
2022/09/07 14:51:40;;;;;;;1.90;1.80;;;;;;;;;;6205509;23;20465;-91
2022/09/07 14:54:14;;;;;;;2.03;1.70;;;;;;;;;;6195667;23;20902;-91
2022/09/07 14:57:19;;;;;;;2.20;2.10;;;;;;;;;;6199175;23;20500;-88
2022/09/07 14:59:52;;;;;;;3.13;2.00;;;;;;;;;;6220056;23;20646;-90
2022/09/07 15:02:22;;;;;;;2.30;1.70;;;;;;;;;;6203200;23;20392;-91
2022/09/07 15:10:18;;;;;;;1.77;1.63;;;;;;;;;;6192569;22;20430;-91
2022/09/07 15:13:01;;;;;;;;;;;;;;;;;;;;;
2022/09/07 15:15:34;;;;;;;1.70;1.60;;;;;;;;;;6235930;23;20375;-90
2022/09/07 15:18:32;;;;;;;;;;;;;;;;;;;;;
2022/09/07 15:21:26;;;;;;;1.60;1.50;;;;;;;;;;6225353;23;20397;-92
2022/09/07 15:24:05;;;;;;;1.47;1.47;;;;;;;;;;6228985;23;20378;-93
2022/09/07 15:26:53;;;;;;;2.00;1.70;;;;;;;;;;6203710;23;20386;-91
2022/09/07 15:38:22;;;;;;;1.50;1.40;;;;;;;;;;6237149;22;20445;-91
2022/09/07 15:40:52;;;;;;;4.20;1.57;;;;;;;;;;6210932;23;20402;-93
2022/09/07 15:43:18;;;;;;;1.50;1.43;;;;;;;;;;6212605;23;20425;-89
2022/09/07 15:45:52;;;;;;;1.57;1.47;;;;;;;;;;6208657;23;20386;-90
2022/09/07 15:48:26;;;;;;;2.57;2.37;;;;;;;;;;6210173;23;20442;-89
2022/09/07 15:51:00;;;;;;;2.37;2.27;;;;;;;;;;6204242;23;20430;-87
2022/09/07 15:53:33;;;;;;;1.77;1.23;;;;;;;;;;6228323;23;20351;-88
2022/09/07 15:55:59;;;;;;;1.10;1.10;;;;;;;;;;6200945;23;20510;-89
2022/09/07 15:58:50;;;;;;;1.50;1.50;;;;;;;;;;6204576;23;20525;-91
2022/09/07 16:01:18;;;;;;;1.90;1.80;;;;;;;;;;6221086;23;20843;-90
2022/09/07 16:28:48;;;;;;;;;;;;;;;;;;;;;
2022/09/07 16:34:12;;;;;;;2.43;1.80;;;;;;;;;;6224763;23;20409;-93
2022/09/07 16:47:03;;;;;;;3.00;2.90;;;;;;;;;;6220936;22;20445;-90
2022/09/07 16:49:36;;;;;;;1.40;1.40;;;;;;;;;;6257720;22;20417;-93
2022/09/07 16:52:35;;;;;;;;;;;;;;;;;;;;;
2022/09/07 16:55:10;;;;;;;5.70;5.23;;;;;;;;;;6253335;23;20394;-90
2022/09/07 17:01:31;;;;;;;3.80;3.47;;;;;;;;;;6228203;23;20401;-91
2022/09/07 17:04:06;;;;;;;3.07;2.17;;;;;;;;;;6213942;23;20470;-91
2022/09/07 17:06:35;;;;;;;3.37;1.47;;;;;;;;;;6243591;23;20409;-90
2022/09/07 17:09:04;;;;;;;1.70;1.60;;;;;;;;;;6247395;23;20461;-91
2022/09/07 17:11:52;;;;;;;14.30;10.63;;;;;;;;;;6243239;23;20504;-91
2022/09/07 17:14:20;;;;;;;2.50;1.63;;;;;;;;;;6245930;23;20372;-89
2022/09/07 17:16:52;;;;;;;3.03;2.03;;;;;;;;;;6249130;23;20454;-92
2022/09/07 17:19:57;;;;;;;2.10;1.97;;;;;;;;;;6258554;23;20358;-92
2022/09/07 17:22:55;;;;;;;3.93;2.27;;;;;;;;;;6242065;23;20374;-92
2022/09/07 17:25:24;;;;;;;2.60;2.40;;;;;;;;;;6250350;23;20420;-90
2022/09/07 17:27:50;;;;;;;2.43;2.10;;;;;;;;;;6252518;23;20447;-88
2022/09/07 17:30:18;;;;;;;2.10;1.90;;;;;;;;;;6252226;23;20483;-90
2022/09/07 17:32:44;;;;;;;2.97;1.30;;;;;;;;;;6251109;23;20389;-90
2022/09/07 17:35:10;;;;;;;1.80;1.70;;;;;;;;;;6255602;23;20404;-90
2022/09/07 17:37:37;;;;;;;2.77;2.57;;;;;;;;;;6251422;23;20393;-90
2022/09/07 17:40:04;;;;;;;1.87;1.87;;;;;;;;;;6243712;23;20446;-90
2022/09/07 17:42:30;;;;;;;2.47;2.27;;;;;;;;;;6240042;23;20390;-90
2022/09/07 17:44:56;;;;;;;3.77;1.97;;;;;;;;;;6247033;23;20381;-91
2022/09/07 17:47:22;;;;;;;3.40;2.30;;;;;;;;;;6237531;23;20509;-91
2022/09/07 17:49:56;;;;;;;2.30;1.60;;;;;;;;;;6213664;23;20425;-90
2022/09/07 17:52:32;;;;;;;2.00;1.77;;;;;;;;;;6240672;23;20419;-91
2022/09/07 17:55:00;;;;;;;3.90;2.43;;;;;;;;;;6243779;23;20424;-92
2022/09/07 17:57:31;;;;;;;3.27;2.87;;;;;;;;;;6247786;23;20464;-90
2022/09/07 17:59:59;;;;;;;3.70;2.90;;;;;;;;;;6236014;23;20503;-89
2022/09/07 18:02:52;;;;;;;3.30;3.03;;;;;;;;;;6193862;23;20493;-89
2022/09/07 18:13:11;;;;;;;6.90;4.97;;;;;;;;;;6190232;22;20998;-90
2022/09/07 18:16:22;;;;;;;4.10;3.90;;;;;;;;;;6181172;23;20510;-92
2022/09/07 18:18:55;;;;;;;2.73;2.63;;;;;;;;;;6212415;23;20889;-90
2022/09/07 18:21:22;;;;;;;3.83;3.63;;;;;;;;;;6209667;23;20790;-93
2022/09/07 18:24:10;;;;;;;3.20;2.90;;;;;;;;;;6216183;23;20413;-91
2022/09/07 18:26:54;;;;;;;4.97;4.57;;;;;;;;;;6217545;23;20379;-91
2022/09/07 18:29:30;;;;;;;2.60;2.40;;;;;;;;;;6214361;23;20402;-91
2022/09/07 18:32:05;;;;;;;3.97;2.13;;;;;;;;;;6212675;23;20433;-91
2022/09/07 18:34:40;;;;;;;2.27;2.27;;;;;;;;;;6216877;23;20374;-92
2022/09/07 18:37:07;;;;;;;4.17;3.87;;;;;;;;;;6180898;23;20451;-92
2022/09/07 18:39:58;;;;;;;4.20;3.83;;;;;;;;;;6143510;23;20415;-93
2022/09/07 18:50:49;;;;;;;;;;;;;;;;;;;;;
2022/09/07 18:53:15;;;;;;;2.73;2.60;;;;;;;;;;6234931;23;20366;-94
2022/09/07 18:55:41;;;;;;;2.47;2.37;;;;;;;;;;6209743;23;20413;-95
2022/09/07 18:58:10;;;;;;;3.37;2.70;;;;;;;;;;6206721;23;20547;-92
2022/09/07 19:00:36;;;;;;;3.17;2.87;;;;;;;;;;6202634;23;20408;-93
2022/09/07 19:03:15;;;;;;;2.43;2.30;;;;;;;;;;6231188;23;20434;-93
2022/09/07 19:05:55;;;;;;;;;;;;;;;;;;;;;
2022/09/07 19:08:34;;;;;;;2.57;2.47;;;;;;;;;;6231949;23;20382;-91
2022/09/07 19:11:08;;;;;;;2.63;2.57;;;;;;;;;;6205501;23;20441;-92
2022/09/07 19:13:52;;;;;;;4.67;2.50;;;;;;;;;;6203052;23;20398;-92
2022/09/07 19:16:34;;;;;;;2.20;2.07;;;;;;;;;;6195704;23;20378;-90
2022/09/07 19:19:06;;;;;;;2.60;2.60;;;;;;;;;;6202937;23;20386;-90
2022/09/07 19:29:49;;;;;;;3.17;3.17;;;;;;;;;;6236145;22;21516;-91
2022/09/07 19:32:17;;;;;;;5.53;2.70;;;;;;;;;;6240539;23;20432;-92
2022/09/07 19:34:44;;;;;;;2.40;2.30;;;;;;;;;;6243698;23;20408;-91
2022/09/07 19:37:13;;;;;;;5.50;3.00;;;;;;;;;;6240782;23;20474;-93
2022/09/07 19:39:39;;;;;;;2.63;2.53;;;;;;;;;;6240232;23;20756;-91
2022/09/07 19:42:08;;;;;;;2.40;2.20;;;;;;;;;;6239500;23;20401;-91
2022/09/07 19:45:00;;;;;;;4.13;2.37;;;;;;;;;;6239641;23;20386;-90
2022/09/07 19:53:22;;;;;;;2.60;2.50;;;;;;;;;;6210751;23;20381;-93
2022/09/07 19:56:27;;;;;;;;;;;;;;;;;;;;;
2022/09/07 19:58:54;;;;;;;6.60;3.17;;;;;;;;;;6205532;23;20442;-91
2022/09/07 20:01:23;;;;;;;3.50;2.60;;;;;;;;;;6199206;23;20347;-92
2022/09/07 21:01:21;;;;;;;;;;;;;;;;;;;;;
2022/09/07 21:04:14;;;;;;;3.90;3.60;;;;;;;;;;6249110;23;20390;-91
2022/09/07 21:17:06;;;;;;;3.55;3.35;;;;;;;;;;6260243;22;20415;-89
2022/09/07 23:08:37;;;;;;;5.03;4.10;;;;;;;;;;6255361;22;20410;-95
2022/09/07 23:11:04;;;;;;;4.90;4.70;;;;;;;;;;6241361;23;20370;-94
2022/09/07 23:13:33;;;;;;;4.90;4.70;;;;;;;;;;6266903;22;20378;-94
2022/09/07 23:16:23;;;;;;;4.70;4.40;;;;;;;;;;6241954;23;20382;-93
2022/09/07 23:21:58;;;;;;;4.13;3.92;;;;;;;;;;6267286;23;20350;-93
2022/09/07 23:24:42;;;;;;;;;;;;;;;;;;;;;
2022/09/07 23:27:09;;;;;;;4.25;4.05;;;;;;;;;;6256685;23;20344;-95
2022/09/07 23:29:35;;;;;;;4.43;4.15;;;;;;;;;;6228300;23;20358;-94
2022/09/07 23:32:01;;;;;;;4.30;3.90;;;;;;;;;;6226381;23;20397;-94
2022/09/07 23:34:30;;;;;;;4.47;4.05;;;;;;;;;;6221508;23;20430;-95
2022/09/07 23:36:58;;;;;;;4.65;4.45;;;;;;;;;;6251791;23;20342;-94
2022/09/07 23:39:28;;;;;;;4.32;4.00;;;;;;;;;;6255015;23;20364;-94
2022/09/07 23:42:24;;;;;;;;;;;;;;;;;;;;;
2022/09/07 23:44:58;;;;;;;4.57;4.20;;;;;;;;;;6245238;23;20513;-96
2022/09/07 23:47:44;;;;;;;4.20;4.00;;;;;;;;;;6233458;23;20370;-95